Time;durP1;ratioP1;P1;durP2;ratioP2;P2;SDS_P1;SDS_P2;PMS_P1;PMS_P2;Temp;Humidity;BMP_temperature;BMP_pressure;BME280_temperature;BME280_humidity;BME280_pressure;Samples;Min_cycle;Max_cycle;Signal;HPM_P1;HPM_P2
2022/12/20 00:01:20;;;;;;;57.30;25.85;;;;;;;-2.94;100.00;103270.25;4997583;28;20045;-77
2022/12/20 00:03:47;;;;;;;67.55;26.60;;;;;;;-3.80;100.00;103132.31;5004508;28;20046;-77
2022/12/20 00:06:13;;;;;;;65.68;26.33;;;;;;;-3.69;100.00;103171.13;5000902;28;20030;-77
2022/12/20 00:08:39;;;;;;;52.53;22.98;;;;;;;-2.80;100.00;103269.97;5003467;28;20053;-78
2022/12/20 00:11:06;;;;;;;59.22;27.50;;;;;;;-2.70;100.00;103271.78;4985666;28;20165;-79
2022/12/20 00:13:33;;;;;;;51.17;26.10;;;;;;;-2.55;100.00;103278.47;4991437;28;20038;-77
2022/12/20 00:16:05;;;;;;;58.40;29.90;;;;;;;-2.81;100.00;103272.34;5002216;28;20053;-77
2022/12/20 00:18:31;;;;;;;66.35;28.10;;;;;;;-2.90;100.00;103259.53;5000241;28;20048;-76
2022/12/20 00:20:58;;;;;;;55.47;29.35;;;;;;;-2.83;100.00;103232.78;5002763;28;20049;-78
2022/12/20 00:23:23;;;;;;;52.50;27.88;;;;;;;-2.70;100.00;103258.03;4999509;28;20046;-75
2022/12/20 00:25:49;;;;;;;50.78;25.15;;;;;;;-2.82;100.00;103232.91;5000648;28;20052;-77
2022/12/20 00:28:14;;;;;;;46.83;25.50;;;;;;;-3.43;100.00;103124.09;5003084;28;20041;-77
2022/12/20 00:30:40;;;;;;;55.38;25.75;;;;;;;-2.80;100.00;103240.78;5001528;28;20057;-77
2022/12/20 00:33:05;;;;;;;58.88;25.70;;;;;;;-2.72;100.00;103259.53;5004331;28;20034;-77
2022/12/20 00:35:31;;;;;;;55.10;25.90;;;;;;;-3.58;100.00;103095.25;5000477;28;20041;-76
2022/12/20 00:37:56;;;;;;;51.42;24.92;;;;;;;-3.58;100.00;103146.56;5000261;28;20050;-77
2022/12/20 00:40:21;;;;;;;53.88;26.42;;;;;;;-2.70;100.00;103261.50;5003088;28;20046;-79
2022/12/20 00:42:47;;;;;;;55.25;27.65;;;;;;;-2.95;100.00;103193.94;5001358;28;20532;-79
2022/12/20 00:45:13;;;;;;;54.08;25.02;;;;;;;-2.71;100.00;103246.84;4992994;28;20034;-79
2022/12/20 00:47:38;;;;;;;66.15;27.13;;;;;;;-3.37;100.00;103131.47;4991756;28;20028;-78
2022/12/20 00:50:04;;;;;;;63.78;28.23;;;;;;;-2.70;100.00;103240.03;4999825;28;20147;-80
2022/12/20 00:52:30;;;;;;;58.00;27.55;;;;;;;-3.03;100.00;103200.88;5001260;28;20510;-80
2022/12/20 00:54:55;;;;;;;60.40;28.75;;;;;;;-3.48;100.00;103104.75;4994039;28;20064;-80
2022/12/20 00:57:21;;;;;;;44.20;23.63;;;;;;;-2.98;100.00;103201.31;5006604;28;20034;-81
2022/12/20 00:59:46;;;;;;;59.00;23.98;;;;;;;-3.49;100.00;103098.72;5003255;28;20160;-79
2022/12/20 01:02:12;;;;;;;59.97;26.77;;;;;;;-2.78;100.00;103204.22;5000730;28;20054;-76
2022/12/20 01:04:37;;;;;;;54.05;24.40;;;;;;;-2.67;100.00;103227.50;5001771;28;20450;-77
2022/12/20 01:07:03;;;;;;;57.53;27.20;;;;;;;-3.02;100.00;103168.38;5002091;28;20060;-77
2022/12/20 01:09:28;;;;;;;58.20;28.67;;;;;;;-2.68;100.00;103220.53;5001700;28;20030;-78
2022/12/20 01:11:54;;;;;;;47.88;25.65;;;;;;;-2.73;100.00;103208.91;5002579;28;20037;-80
2022/12/20 01:14:19;;;;;;;59.22;26.70;;;;;;;-2.68;100.00;103197.41;4987075;28;20077;-78
2022/12/20 01:16:46;;;;;;;56.00;28.38;;;;;;;-3.25;100.00;103100.25;4999291;28;20719;-78
2022/12/20 01:19:14;;;;;;;71.30;29.75;;;;;;;-3.37;100.00;103077.59;5000813;28;20517;-75
2022/12/20 01:21:43;;;;;;;60.05;26.65;;;;;;;-2.44;100.00;103217.81;5000705;28;20050;-76
2022/12/20 01:24:16;;;;;;;64.43;32.65;;;;;;;-2.54;100.00;103212.53;5003083;28;20033;-77
2022/12/20 01:26:42;;;;;;;73.60;31.92;;;;;;;-2.79;100.00;103175.78;5004697;28;20084;-76
2022/12/20 01:29:08;;;;;;;65.18;28.67;;;;;;;-2.86;100.00;103163.09;4999795;28;20452;-79
2022/12/20 01:31:34;;;;;;;72.78;29.33;;;;;;;-2.67;100.00;103195.00;4998793;28;20046;-83
2022/12/20 01:34:00;;;;;;;64.93;28.15;;;;;;;-3.20;100.00;103067.34;5001514;28;20046;-82
2022/12/20 01:36:29;;;;;;;57.13;27.77;;;;;;;-2.94;100.00;103131.53;5001303;28;20038;-80
2022/12/20 01:38:59;;;;;;;68.78;32.20;;;;;;;-3.49;100.00;103049.97;5002265;28;20038;-79
2022/12/20 01:41:25;;;;;;;71.72;29.58;;;;;;;-3.57;100.00;103014.94;5001226;28;20384;-82
2022/12/20 01:43:57;;;;;;;71.43;30.40;;;;;;;-2.70;100.00;103174.13;4993803;28;20372;-78
2022/12/20 01:46:25;;;;;;;61.40;29.92;;;;;;;-3.01;100.00;103158.25;5001641;28;20053;-81
2022/12/20 01:49:21;;;;;;;62.90;30.20;;;;;;;-3.00;100.00;103164.31;5003464;28;20049;-81
2022/12/20 01:51:50;;;;;;;59.67;25.80;;;;;;;-3.75;100.00;103019.13;5003721;28;20057;-81
2022/12/20 01:54:22;;;;;;;57.92;28.30;;;;;;;-3.27;100.00;103093.16;4999580;28;20160;-81
2022/12/20 01:56:56;;;;;;;58.60;25.83;;;;;;;-3.00;100.00;103120.63;5001069;28;20121;-80
2022/12/20 01:59:21;;;;;;;67.40;28.10;;;;;;;-3.41;100.00;103036.22;5002670;28;20092;-80
2022/12/20 02:01:47;;;;;;;60.67;27.90;;;;;;;-3.63;100.00;102971.63;4999784;28;20136;-80
2022/12/20 02:04:12;;;;;;;60.17;33.35;;;;;;;-2.88;100.00;103109.03;5003270;28;20044;-79
2022/12/20 02:06:38;;;;;;;54.92;28.90;;;;;;;-3.71;100.00;102966.47;4998334;28;20045;-82
2022/12/20 02:09:05;;;;;;;57.53;29.58;;;;;;;-2.86;100.00;103138.31;5001632;28;20061;-80
2022/12/20 02:11:49;;;;;;;53.88;30.25;;;;;;;-2.91;100.00;103148.91;5001237;28;20060;-81
2022/12/20 02:14:34;;;;;;;74.68;31.33;;;;;;;-3.75;100.00;102978.09;4999689;28;20038;-81
2022/12/20 02:17:32;;;;;;;81.50;30.50;;;;;;;-2.78;100.00;103126.25;5000075;28;20178;-82
2022/12/20 02:20:15;;;;;;;72.40;29.42;;;;;;;-2.68;100.00;103122.91;5001774;28;20142;-79
2022/12/20 02:23:17;;;;;;;50.33;25.77;;;;;;;-2.74;100.00;103122.28;5000389;28;20061;-77
2022/12/20 02:25:57;;;;;;;49.88;27.77;;;;;;;-3.33;100.00;102988.19;4996744;28;20429;-78
2022/12/20 02:28:31;;;;;;;63.95;27.10;;;;;;;-2.67;100.00;103129.84;5001828;28;20083;-80
2022/12/20 02:31:02;;;;;;;62.88;28.83;;;;;;;-2.72;100.00;103116.53;4999158;28;20144;-79
2022/12/20 02:33:28;;;;;;;54.38;26.58;;;;;;;-2.70;100.00;103116.69;4982358;28;20505;-81
2022/12/20 02:35:54;;;;;;;62.70;27.25;;;;;;;-2.88;100.00;103056.72;4999318;28;20034;-81
2022/12/20 02:38:34;;;;;;;58.47;27.67;;;;;;;-3.44;100.00;102994.88;4999456;28;20057;-79
2022/12/20 02:41:31;;;;;;;59.22;28.02;;;;;;;-3.12;100.00;103055.25;4996756;28;20058;-81
2022/12/20 02:46:53;;;;;;;55.20;24.98;;;;;;;-2.63;100.00;103106.25;4999726;28;20057;-78
2022/12/20 02:49:24;;;;;;;64.85;29.17;;;;;;;-2.77;100.00;103104.91;4994355;28;20062;-79
2022/12/20 02:51:52;;;;;;;57.15;27.67;;;;;;;-2.92;100.00;103081.22;5000633;28;20053;-81
2022/12/20 02:54:18;;;;;;;60.28;29.67;;;;;;;-3.61;100.00;102961.50;4998760;28;20056;-81
2022/12/20 02:56:49;;;;;;;66.43;27.20;;;;;;;-3.61;100.00;102964.06;4997734;28;20040;-78
2022/12/20 02:59:21;;;;;;;45.88;23.65;;;;;;;-2.92;100.00;103072.59;4999776;28;20053;-78
2022/12/20 03:01:51;;;;;;;65.30;28.23;;;;;;;-2.91;100.00;103071.84;4998637;28;20101;-78
2022/12/20 03:04:18;;;;;;;60.45;28.52;;;;;;;-2.77;100.00;103107.47;5007020;28;20057;-78
2022/12/20 03:07:03;;;;;;;77.15;32.17;;;;;;;-2.94;100.00;103082.72;5001647;28;20168;-78
2022/12/20 03:09:34;;;;;;;60.60;29.42;;;;;;;-3.66;100.00;102965.28;5004194;28;20026;-80
2022/12/20 03:12:00;;;;;;;54.17;22.73;;;;;;;-2.87;100.00;103084.22;5002323;28;21073;-79
2022/12/20 03:14:26;;;;;;;64.30;28.02;;;;;;;-3.72;100.00;103054.44;4981446;28;20455;-80
2022/12/20 03:16:52;;;;;;;62.55;28.52;;;;;;;-3.23;100.00;103083.34;4984035;28;20058;-80
2022/12/20 03:19:18;;;;;;;70.50;33.15;;;;;;;-3.93;100.00;102941.28;4983995;28;20096;-81
2022/12/20 03:21:43;;;;;;;57.60;26.75;;;;;;;-3.09;100.00;103074.44;4982300;28;20050;-81
2022/12/20 03:24:10;;;;;;;64.60;29.27;;;;;;;-3.18;100.00;103024.75;4985183;28;20505;-80
2022/12/20 03:26:36;;;;;;;60.45;27.63;;;;;;;-3.97;100.00;102910.06;4983007;28;20053;-80
2022/12/20 03:29:03;;;;;;;66.82;28.70;;;;;;;-3.52;100.00;102988.06;4987437;28;20472;-79
2022/12/20 03:31:29;;;;;;;69.22;26.17;;;;;;;-2.94;100.00;103074.13;5004921;28;20043;-78
2022/12/20 03:33:55;;;;;;;66.32;28.15;;;;;;;-3.04;100.00;103073.22;4995902;28;20061;-79
2022/12/20 03:36:22;;;;;;;59.47;27.23;;;;;;;-3.68;100.00;102928.28;5001604;28;20038;-80
2022/12/20 03:38:49;;;;;;;61.17;25.05;;;;;;;-3.71;100.00;102944.28;5006304;28;20528;-80
2022/12/20 03:41:14;;;;;;;63.70;30.20;;;;;;;-2.97;100.00;103083.34;5003963;28;22373;-81
2022/12/20 03:43:40;;;;;;;56.30;28.48;;;;;;;-3.72;100.00;102956.97;4987358;28;20560;-78
2022/12/20 03:46:05;;;;;;;54.65;25.85;;;;;;;-3.21;100.00;103070.63;5002926;28;20425;-80
2022/12/20 03:48:31;;;;;;;61.17;28.13;;;;;;;-3.34;100.00;103037.75;5000591;28;20104;-79
2022/12/20 03:50:56;;;;;;;49.22;24.63;;;;;;;-3.23;100.00;103039.69;5001275;28;20459;-80
2022/12/20 03:53:22;;;;;;;77.68;33.53;;;;;;;-3.11;100.00;103042.56;5000673;28;20502;-81
2022/12/20 03:55:47;;;;;;;48.85;24.73;;;;;;;-3.13;100.00;103074.88;4999025;28;20084;-80
2022/12/20 03:58:12;;;;;;;49.22;25.38;;;;;;;-3.29;100.00;103022.78;5005322;28;20042;-78
2022/12/20 04:00:38;;;;;;;56.83;28.20;;;;;;;-2.86;100.00;103075.75;4999859;28;20069;-81
2022/12/20 04:03:03;;;;;;;58.45;22.67;;;;;;;-2.98;100.00;103075.47;5006339;28;20044;-79
2022/12/20 04:05:29;;;;;;;59.65;28.77;;;;;;;-3.45;100.00;102981.88;5000792;28;20630;-79
2022/12/20 04:07:54;;;;;;;56.53;23.98;;;;;;;-2.89;100.00;103058.38;5001549;28;20457;-76
2022/12/20 04:10:20;;;;;;;57.35;26.95;;;;;;;-4.14;100.00;102916.09;5001588;28;20402;-74
2022/12/20 04:12:45;;;;;;;60.85;31.42;;;;;;;-3.33;100.00;103025.81;5002170;28;20549;-78
2022/12/20 04:15:11;;;;;;;60.00;28.70;;;;;;;-3.16;100.00;103043.78;5003702;28;20048;-81
2022/12/20 04:17:36;;;;;;;60.17;25.70;;;;;;;-3.89;100.00;102901.44;5003947;28;20468;-76
2022/12/20 04:20:17;;;;;;;62.22;23.40;;;;;;;-3.06;100.00;103025.03;4999729;28;20046;-80
2022/12/20 04:22:52;;;;;;;67.50;27.15;;;;;;;-2.88;100.00;103043.88;5002907;28;20108;-82
2022/12/20 04:25:20;;;;;;;65.45;25.65;;;;;;;-3.34;100.00;102959.84;5000486;28;20054;-81
2022/12/20 04:27:45;;;;;;;62.85;27.35;;;;;;;-3.00;100.00;103041.94;5002103;28;20104;-79
2022/12/20 04:30:12;;;;;;;53.10;25.42;;;;;;;-3.16;100.00;103020.66;4984316;28;20041;-79
2022/12/20 04:32:38;;;;;;;62.78;29.90;;;;;;;-3.00;100.00;103035.88;4998346;28;20050;-79
2022/12/20 04:35:04;;;;;;;51.35;27.95;;;;;;;-3.22;100.00;102995.28;5001693;28;20535;-79
2022/12/20 04:37:30;;;;;;;48.35;25.70;;;;;;;-3.65;100.00;102924.38;5000553;28;20046;-79
2022/12/20 04:39:57;;;;;;;57.03;24.00;;;;;;;-3.11;100.00;103031.41;5002496;28;20042;-78
2022/12/20 04:42:23;;;;;;;53.95;25.98;;;;;;;-3.04;100.00;103034.69;5002451;28;20034;-79
2022/12/20 04:44:48;;;;;;;86.20;28.85;;;;;;;-2.97;100.00;103044.81;5004409;28;20037;-81
2022/12/20 04:47:14;;;;;;;46.95;24.52;;;;;;;-3.49;100.00;102951.53;4996118;28;20054;-79
2022/12/20 04:49:39;;;;;;;64.90;27.33;;;;;;;-2.98;100.00;103053.25;5000782;28;20076;-75
2022/12/20 04:54:49;;;;;;;51.92;23.90;;;;;;;-3.18;100.00;102981.09;5003396;28;20061;-80
2022/12/20 04:57:14;;;;;;;65.30;29.20;;;;;;;-3.26;100.00;102967.50;5002342;28;20021;-79
2022/12/20 04:59:41;;;;;;;60.03;29.23;;;;;;;-2.84;100.00;103057.16;5001641;28;20088;-80
2022/12/20 05:02:06;;;;;;;58.65;26.58;;;;;;;-3.28;100.00;103011.75;4984336;28;20049;-78
2022/12/20 05:04:32;;;;;;;54.22;26.90;;;;;;;-3.08;100.00;103013.72;4999945;28;20053;-80
2022/12/20 05:06:57;;;;;;;61.97;27.85;;;;;;;-3.64;100.00;102899.63;4992844;28;20099;-79
2022/12/20 05:09:23;;;;;;;62.28;30.25;;;;;;;-2.94;100.00;103028.78;4984256;28;20026;-80
2022/12/20 05:11:48;;;;;;;71.38;31.38;;;;;;;-3.14;100.00;103019.13;4979524;28;20034;-82
2022/12/20 05:14:14;;;;;;;58.35;31.45;;;;;;;-3.12;100.00;103002.22;4997621;28;20464;-78
2022/12/20 05:16:39;;;;;;;67.20;32.85;;;;;;;-2.91;100.00;103038.44;4988849;28;20490;-81
2022/12/20 05:19:05;;;;;;;46.95;26.70;;;;;;;-2.95;100.00;103016.72;4983462;28;20054;-79
2022/12/20 05:26:59;;;;;;;64.78;31.77;;;;;;;-2.92;100.00;103013.53;4985078;28;20516;-80
2022/12/20 05:29:25;;;;;;;49.17;29.67;;;;;;;-2.87;100.00;103020.91;4996953;28;20138;-81
2022/12/20 05:31:51;;;;;;;70.20;30.60;;;;;;;-2.74;100.00;103045.19;4973951;28;20042;-78
2022/12/20 05:34:17;;;;;;;59.78;30.58;;;;;;;-2.72;100.00;103039.44;4983405;28;20125;-79
2022/12/20 05:36:42;;;;;;;60.22;30.23;;;;;;;-2.56;100.00;103046.97;4983397;28;20749;-79
2022/12/20 05:39:10;;;;;;;78.55;34.30;;;;;;;-2.69;100.00;103044.91;4980594;28;20050;-77
2022/12/20 05:41:36;;;;;;;51.85;28.05;;;;;;;-2.70;100.00;103030.22;4982717;28;20133;-81
2022/12/20 05:44:02;;;;;;;69.95;28.10;;;;;;;-3.35;100.00;102922.06;4980790;28;20141;-82
2022/12/20 05:46:27;;;;;;;51.88;28.27;;;;;;;-2.81;100.00;103015.44;4975675;28;20498;-85
2022/12/20 05:48:53;;;;;;;61.63;28.80;;;;;;;-3.46;100.00;102886.03;4985055;28;20050;-82
2022/12/20 05:51:18;;;;;;;59.75;26.98;;;;;;;-2.84;100.00;102980.09;4982830;28;20039;-83
2022/12/20 05:53:44;;;;;;;62.67;25.30;;;;;;;-3.19;100.00;102938.19;5006378;28;20482;-79
2022/12/20 05:56:10;;;;;;;73.03;31.52;;;;;;;-3.46;100.00;102910.78;4986930;28;20494;-80
2022/12/20 05:58:35;;;;;;;61.03;26.65;;;;;;;-3.57;100.00;102873.81;4985960;28;20061;-78
2022/12/20 06:01:03;;;;;;;74.80;29.42;;;;;;;-3.72;100.00;102850.16;4990409;28;20489;-77
2022/12/20 06:03:29;;;;;;;58.50;27.08;;;;;;;-3.21;100.00;102908.91;4999584;28;20729;-78
2022/12/20 06:05:55;;;;;;;56.90;27.85;;;;;;;-2.57;100.00;103011.75;4981922;28;20034;-80
2022/12/20 06:08:22;;;;;;;54.33;25.67;;;;;;;-3.57;100.00;102867.78;4997917;28;20042;-78
2022/12/20 06:10:48;;;;;;;57.95;28.60;;;;;;;-2.74;100.00;102996.38;4983140;28;20050;-79
2022/12/20 06:13:16;;;;;;;61.20;30.30;;;;;;;-2.51;100.00;103002.03;4986157;28;20052;-78
2022/12/20 06:15:41;;;;;;;61.60;28.52;;;;;;;-2.80;100.00;102941.09;4995653;28;20046;-77
2022/12/20 06:18:07;;;;;;;66.30;28.88;;;;;;;-2.41;100.00;103003.81;4983753;28;20092;-78
2022/12/20 06:20:34;;;;;;;68.57;29.42;;;;;;;-3.25;100.00;102851.22;4982020;28;20053;-78
2022/12/20 06:23:00;;;;;;;55.42;27.63;;;;;;;-2.50;100.00;102992.69;4979637;28;20062;-78
2022/12/20 06:25:27;;;;;;;66.18;31.05;;;;;;;-2.28;100.00;103021.31;4981847;28;20065;-80
2022/12/20 06:27:53;;;;;;;53.30;26.65;;;;;;;-2.95;100.00;102875.44;4999430;28;20053;-83
2022/12/20 06:30:18;;;;;;;83.25;32.83;;;;;;;-3.02;100.00;102878.16;5004845;28;20822;-78
2022/12/20 06:32:44;;;;;;;63.22;29.00;;;;;;;-2.22;100.00;103011.59;5007458;28;20422;-81
2022/12/20 06:35:10;;;;;;;60.30;29.48;;;;;;;-2.37;100.00;102982.78;4996868;28;20502;-81
2022/12/20 06:37:35;;;;;;;60.90;26.33;;;;;;;-2.26;100.00;102997.53;4998480;28;20433;-82
2022/12/20 06:40:01;;;;;;;61.03;27.55;;;;;;;-2.38;100.00;102976.72;4998591;28;20524;-81
2022/12/20 06:42:26;;;;;;;65.88;26.95;;;;;;;-2.47;100.00;102944.13;4981238;28;20084;-81
2022/12/20 06:44:52;;;;;;;67.57;28.73;;;;;;;-2.80;100.00;102855.41;5004341;28;20773;-80
2022/12/20 06:47:18;;;;;;;47.92;25.27;;;;;;;-2.78;100.00;102848.75;5003484;28;20046;-80
2022/12/20 06:49:43;;;;;;;66.10;28.10;;;;;;;-1.98;100.00;102970.16;5002852;28;20149;-77
2022/12/20 06:52:09;;;;;;;59.40;29.48;;;;;;;-2.58;100.00;102886.56;5002851;28;20486;-76
2022/12/20 06:54:34;;;;;;;72.05;33.80;;;;;;;-1.93;100.00;102996.28;5000041;28;20172;-77
2022/12/20 06:57:00;;;;;;;66.57;27.80;;;;;;;-2.03;100.00;102949.91;4984591;28;20035;-78
2022/12/20 06:59:25;;;;;;;60.13;27.35;;;;;;;-1.78;100.00;103008.00;4997945;28;20402;-79
2022/12/20 07:01:51;;;;;;;51.38;25.80;;;;;;;-2.30;100.00;102877.16;4979546;28;20041;-81
2022/12/20 07:04:16;;;;;;;61.60;30.67;;;;;;;-2.78;100.00;102823.06;5004718;28;20042;-80
2022/12/20 07:06:42;;;;;;;62.33;28.63;;;;;;;-2.27;100.00;102884.25;5000047;28;20050;-79
2022/12/20 07:09:08;;;;;;;62.60;28.73;;;;;;;-2.42;100.00;102850.34;4987420;28;20049;-80
2022/12/20 07:11:33;;;;;;;72.32;31.77;;;;;;;-2.22;100.00;102883.03;5002249;28;20100;-77
2022/12/20 07:13:59;;;;;;;61.20;29.48;;;;;;;-1.72;100.00;102992.22;5000595;28;20046;-78
2022/12/20 07:16:25;;;;;;;62.63;24.95;;;;;;;-2.36;100.00;102836.38;5002255;28;20528;-77
2022/12/20 07:18:52;;;;;;;66.20;29.70;;;;;;;-1.56;100.00;102964.53;5001856;28;20049;-78
2022/12/20 07:21:18;;;;;;;55.42;27.33;;;;;;;-2.25;100.00;102883.63;4997885;28;20022;-80
2022/12/20 07:23:44;;;;;;;54.92;26.15;;;;;;;-1.43;100.00;102983.63;5002537;28;20042;-82
2022/12/20 07:26:10;;;;;;;63.20;30.90;;;;;;;-2.27;100.00;102851.75;5000193;28;20057;-76
2022/12/20 07:28:36;;;;;;;64.45;26.30;;;;;;;-1.74;100.00;102942.25;5000509;28;20486;-82
2022/12/20 07:31:02;;;;;;;57.47;26.30;;;;;;;-2.12;100.00;102903.66;5002853;28;20108;-83
2022/12/20 07:33:29;;;;;;;50.63;24.58;;;;;;;-1.68;100.00;102939.38;5001749;28;20104;-81
2022/12/20 07:36:04;;;;;;;60.60;26.63;;;;;;;-2.18;100.00;102826.88;5002011;28;20049;-78
2022/12/20 07:38:30;;;;;;;62.65;27.40;;;;;;;-1.18;100.00;102982.50;5002951;28;20073;-83
2022/12/20 07:40:56;;;;;;;70.43;29.55;;;;;;;-1.63;100.00;102928.69;4999440;28;20176;-82
2022/12/20 07:43:21;;;;;;;51.83;23.67;;;;;;;-1.89;100.00;102840.56;5003912;28;20362;-83
2022/12/20 07:45:47;;;;;;;61.25;29.33;;;;;;;-1.96;100.00;102821.09;4986106;28;20121;-78
2022/12/20 07:48:12;;;;;;;51.53;26.48;;;;;;;-1.20;100.00;102968.56;5000639;28;20057;-80
2022/12/20 07:50:40;;;;;;;63.05;25.70;;;;;;;-2.12;100.00;102816.22;5000406;28;20954;-80
2022/12/20 07:53:08;;;;;;;61.00;28.55;;;;;;;-1.11;100.00;102969.38;5000835;28;20057;-82
2022/12/20 07:55:35;;;;;;;59.67;24.95;;;;;;;-1.34;100.00;102915.84;4989417;28;20176;-82
2022/12/20 07:58:04;;;;;;;48.20;23.67;;;;;;;-0.92;100.00;102965.84;4986987;28;20161;-81
2022/12/20 08:00:30;;;;;;;49.20;25.98;;;;;;;-1.76;100.00;102822.84;5000678;28;20096;-81
2022/12/20 08:03:07;;;;;;;52.05;26.92;;;;;;;-1.66;100.00;102812.59;5000441;28;20069;-80
2022/12/20 08:05:36;;;;;;;51.45;26.45;;;;;;;-1.02;100.00;102934.91;4994109;28;20196;-80
2022/12/20 08:08:04;;;;;;;66.75;26.15;;;;;;;-1.03;100.00;102939.16;5003394;28;20045;-82
2022/12/20 08:10:30;;;;;;;43.97;21.55;;;;;;;-0.83;100.00;102960.63;5002131;28;20073;-82
2022/12/20 08:12:57;;;;;;;51.50;22.73;;;;;;;-1.63;100.00;102812.88;5001611;28;20506;-81
2022/12/20 08:15:23;;;;;;;51.28;24.50;;;;;;;-1.80;100.00;102790.81;4998928;28;20041;-82
2022/12/20 08:17:49;;;;;;;58.83;28.95;;;;;;;-1.06;100.00;102887.34;5003410;28;20045;-81
2022/12/20 08:20:16;;;;;;;52.35;24.25;;;;;;;-0.85;100.00;102921.81;4997713;28;20094;-81
2022/12/20 08:22:41;;;;;;;50.72;26.75;;;;;;;-1.60;100.00;102773.63;4982772;28;20462;-80
2022/12/20 08:25:07;;;;;;;63.33;29.08;;;;;;;-1.58;100.00;102783.28;5003401;28;20058;-82
2022/12/20 08:27:33;;;;;;;49.17;25.15;;;;;;;-0.87;100.00;102884.69;4997412;28;20164;-82
2022/12/20 08:29:59;;;;;;;54.55;24.48;;;;;;;-1.16;100.00;102843.53;5003187;28;20488;-82
2022/12/20 08:32:25;;;;;;;55.05;27.55;;;;;;;-0.61;100.00;102891.19;4997667;28;20058;-83
2022/12/20 08:34:51;;;;;;;73.57;33.80;;;;;;;-1.56;100.00;102779.16;5001102;28;20046;-82
2022/12/20 08:37:18;;;;;;;54.38;28.05;;;;;;;-1.44;100.00;102788.75;4991483;28;20050;-80
2022/12/20 08:39:44;;;;;;;69.03;27.63;;;;;;;-0.36;100.00;102914.81;5000468;28;20053;-81
2022/12/20 08:42:10;;;;;;;64.10;29.83;;;;;;;-0.34;100.00;102910.69;5003994;28;20481;-81
2022/12/20 08:44:35;;;;;;;57.53;26.17;;;;;;;-0.55;100.00;102900.34;5002070;28;20132;-80
2022/12/20 08:47:01;;;;;;;72.25;30.58;;;;;;;-0.80;100.00;102905.06;5002283;28;20199;-80
2022/12/20 08:49:26;;;;;;;53.72;25.63;;;;;;;-0.64;100.00;102848.00;5001675;28;20576;-79
2022/12/20 08:51:51;;;;;;;55.50;26.48;;;;;;;-0.26;100.00;102889.00;5000634;28;20429;-77
2022/12/20 08:54:17;;;;;;;53.20;26.20;;;;;;;-1.81;100.00;102680.00;5001908;28;20141;-76
2022/12/20 08:56:42;;;;;;;50.60;25.27;;;;;;;-0.29;100.00;102899.06;5000946;28;20584;-77
2022/12/20 08:59:08;;;;;;;61.53;28.23;;;;;;;-1.55;100.00;102623.94;5002593;28;20108;-81
2022/12/20 09:01:33;;;;;;;60.80;26.15;;;;;;;-0.77;100.00;102874.41;5002297;28;20141;-78
2022/12/20 09:04:00;;;;;;;53.28;24.95;;;;;;;-0.78;100.00;102872.59;4996170;28;20041;-78
2022/12/20 09:06:26;;;;;;;61.47;27.63;;;;;;;-1.02;100.00;102732.25;4998479;28;20052;-78
2022/12/20 09:08:52;;;;;;;50.97;25.02;;;;;;;-0.33;100.00;102825.69;5002756;28;20038;-81
2022/12/20 09:11:23;;;;;;;52.90;25.67;;;;;;;-0.37;100.00;102772.03;4987573;28;20056;-79
2022/12/20 09:13:51;;;;;;;57.53;28.05;;;;;;;-1.16;100.00;102661.53;4994436;28;20088;-81
2022/12/20 09:16:20;;;;;;;64.22;25.67;;;;;;;-0.76;100.00;102710.34;5004057;28;20038;-79
2022/12/20 09:18:54;;;;;;;75.65;31.33;;;;;;;-0.39;100.00;102783.91;4981810;28;20432;-81
2022/12/20 09:21:20;;;;;;;64.03;28.95;;;;;;;-0.25;100.00;102813.41;4981812;28;20042;-79
2022/12/20 09:23:48;;;;;;;65.07;29.73;;;;;;;-0.76;100.00;102702.63;5003185;28;20582;-83
2022/12/20 09:26:16;;;;;;;67.05;29.65;;;;;;;0.22;100.00;102803.47;4997382;28;20073;-76
2022/12/20 09:28:43;;;;;;;62.95;28.92;;;;;;;0.52;100.00;102842.88;4997676;28;20401;-82
2022/12/20 09:31:13;;;;;;;58.38;27.73;;;;;;;0.65;100.00;102824.06;5002283;28;20041;-85
2022/12/20 09:33:40;;;;;;;50.13;27.20;;;;;;;0.48;100.00;102823.66;4993443;28;20054;-82
2022/12/20 09:36:06;;;;;;;56.42;27.67;;;;;;;0.60;100.00;102772.03;5007605;28;20065;-82
2022/12/20 09:38:32;;;;;;;70.78;28.08;;;;;;;-0.04;100.00;102646.53;5011068;28;20109;-85
2022/12/20 09:41:02;;;;;;;60.03;31.55;;;;;;;0.17;100.00;102691.22;5007575;28;20077;-82
2022/12/20 09:43:28;;;;;;;52.45;27.05;;;;;;;-0.32;100.00;102685.63;4999970;28;20042;-82
2022/12/20 09:45:58;;;;;;;55.38;24.02;;;;;;;0.67;100.00;102797.59;5000002;28;20049;-83
2022/12/20 09:48:36;;;;;;;65.85;31.55;;;;;;;0.69;100.00;102751.22;4999540;28;20030;-80
2022/12/20 09:51:28;;;;;;;61.72;28.38;;;;;;;0.09;100.00;102638.97;4998897;28;20148;-85
2022/12/20 09:54:17;;;;;;;47.10;26.23;;;;;;;1.27;100.00;102786.72;5002653;28;20124;-83
2022/12/20 09:57:41;;;;;;;62.08;27.38;;;;;;;1.23;100.00;102776.91;4966544;28;20791;-82
2022/12/20 10:00:12;;;;;;;;;;;;;;;1.04;100.00;102785.84;4952281;28;20189;-80
2022/12/20 10:02:37;;;;;;;59.85;27.75;;;;;;;-0.29;100.00;102646.25;4989328;28;19956;-82
2022/12/20 10:05:03;;;;;;;53.45;22.05;;;;;;;0.92;100.00;102784.91;5000640;28;20954;-82
2022/12/20 10:07:45;;;;;;;58.67;24.35;;;;;;;1.30;100.00;102780.88;4999452;28;20064;-77
2022/12/20 10:10:47;;;;;;;45.28;26.27;;;;;;;1.17;100.00;102777.34;4986925;28;20088;-78
2022/12/20 10:13:21;;;;;;;61.95;29.40;;;;;;;1.38;100.00;102767.72;4970051;28;20418;-76
2022/12/20 10:15:56;;;;;;;59.88;29.55;;;;;;;1.48;100.00;102759.88;4999019;28;20053;-81
2022/12/20 10:18:37;;;;;;;54.58;27.80;;;;;;;0.77;100.00;102610.56;4999747;28;20034;-84
2022/12/20 10:21:45;;;;;;;55.05;29.65;;;;;;;1.52;100.00;102747.16;4999148;28;20040;-79
2022/12/20 10:24:26;;;;;;;50.92;28.33;;;;;;;1.80;100.00;102740.66;5000856;28;20489;-86
2022/12/20 10:26:52;;;;;;;62.83;28.08;;;;;;;1.47;100.00;102737.38;5003936;28;20042;-86
2022/12/20 10:29:19;;;;;;;68.97;30.17;;;;;;;0.53;100.00;102626.00;5005171;28;20085;-80
2022/12/20 10:31:48;;;;;;;58.58;27.30;;;;;;;1.65;100.00;102711.06;5004202;28;20038;-85
2022/12/20 10:34:14;;;;;;;70.28;31.15;;;;;;;1.71;100.00;102708.94;5007982;28;20062;-84
2022/12/20 10:36:40;;;;;;;60.60;28.92;;;;;;;1.46;100.00;102605.31;5008286;28;20046;-85
2022/12/20 10:39:08;;;;;;;59.70;31.23;;;;;;;2.07;100.00;102702.00;4993299;28;20076;-86
2022/12/20 10:41:41;;;;;;;61.78;27.77;;;;;;;2.42;100.00;102707.09;5009030;28;20111;-84
2022/12/20 10:44:23;;;;;;;55.80;27.20;;;;;;;2.68;100.00;102698.53;5018864;28;20089;-85
2022/12/20 10:46:53;;;;;;;58.60;28.13;;;;;;;1.78;100.00;102578.25;5005028;28;20058;-83
2022/12/20 10:49:26;;;;;;;55.50;27.15;;;;;;;2.84;100.00;102694.41;4983008;28;20775;-85
2022/12/20 10:51:54;;;;;;;64.20;29.42;;;;;;;1.95;100.00;102577.75;5003316;28;20049;-82
2022/12/20 10:54:32;;;;;;;50.63;26.70;;;;;;;2.75;100.00;102658.38;5006539;28;20054;-82
2022/12/20 10:57:20;;;;;;;69.45;27.70;;;;;;;2.82;100.00;102683.03;5005005;28;20045;-87
2022/12/20 10:59:57;;;;;;;58.25;28.77;;;;;;;3.06;100.00;102665.63;5005302;28;20100;-86
2022/12/20 11:02:38;;;;;;;64.78;29.83;;;;;;;2.92;100.00;102672.47;5002844;28;20046;-85
2022/12/20 11:05:20;;;;;;;45.90;24.38;;;;;;;2.62;100.00;102581.50;4985248;28;20046;-81
2022/12/20 11:08:06;;;;;;;55.42;28.83;;;;;;;3.17;100.00;102652.56;5004428;28;20042;-85
2022/12/20 11:10:32;;;;;;;54.75;29.30;;;;;;;2.59;100.00;102545.00;5003413;28;20066;-89
2022/12/20 11:13:00;;;;;;;79.85;30.48;;;;;;;2.84;100.00;102635.66;5003270;28;20081;-86
2022/12/20 11:15:29;;;;;;;54.67;29.73;;;;;;;2.63;100.00;102585.88;5010326;28;20037;-85
2022/12/20 11:18:49;;;;;;;50.70;28.10;;;;;;;3.00;100.00;102654.81;5004218;28;20041;-86
2022/12/20 11:21:41;;;;;;;57.67;31.88;;;;;;;2.39;100.00;102665.44;4983399;28;20054;-84